Terminal Aerodrome Forecast
Issued by NWS Paducah, KY

Home | Current Version | Previous Version | Text Only | Print | Product List | Glossary On
Versions: 1 2 3 4 5 6 7 8 9 10 11 12 13 14 15 16 17 18
000
FTUS43 KPAH 170537
TAFEVV
TAF
KEVV 170537Z 1706/1806 17009KT P6SM -SHRA BKN015
     FM170730 21011KT P6SM OVC015
     FM171200 25010KT P6SM BKN015
     FM171800 26010KT P6SM BKN020=

USA.gov is the U.S. government's official web portal to all federal, state and local government web resources and services.